Time;durP1;ratioP1;P1;durP2;ratioP2;P2;SDS_P1;SDS_P2;PMS_P1;PMS_P2;Temp;Humidity;BMP_temperature;BMP_pressure;BME280_temperature;BME280_humidity;BME280_pressure;Samples;Min_cycle;Max_cycle;Signal;HPM_P1;HPM_P2
2022/07/12 00:01:50;;;;;;;5.85;2.55;;;14.20;99.90;;;;;;5010983;28;20432;-81
2022/07/12 00:04:16;;;;;;;4.63;2.42;;;14.20;99.90;;;;;;5010953;28;20029;-82
2022/07/12 00:06:42;;;;;;;3.78;2.15;;;14.20;99.90;;;;;;5011050;28;20548;-80
2022/07/12 00:09:08;;;;;;;5.55;2.47;;;14.20;99.90;;;;;;5010789;28;20025;-82
2022/07/12 00:11:35;;;;;;;5.88;2.50;;;14.10;99.90;;;;;;5011054;28;20615;-82
2022/07/12 00:14:01;;;;;;;2.75;2.55;;;14.20;99.90;;;;;;5010632;28;20501;-83
2022/07/12 00:16:27;;;;;;;7.57;2.35;;;14.20;99.90;;;;;;5010910;28;20076;-82
2022/07/12 00:18:53;;;;;;;9.18;2.58;;;14.20;99.90;;;;;;5010973;28;20022;-81
2022/07/12 00:21:22;;;;;;;5.18;2.38;;;14.20;99.90;;;;;;5010879;28;20018;-81
2022/07/12 00:23:48;;;;;;;6.70;2.47;;;14.20;99.90;;;;;;5009521;28;20028;-81
2022/07/12 00:26:13;;;;;;;3.40;2.58;;;14.20;99.90;;;;;;5010898;28;20030;-81
2022/07/12 00:28:39;;;;;;;2.70;2.10;;;14.20;99.90;;;;;;5012681;28;20026;-80
2022/07/12 00:31:05;;;;;;;7.60;2.97;;;14.20;99.90;;;;;;5009792;28;20378;-80
2022/07/12 00:33:31;;;;;;;2.30;2.08;;;14.10;99.90;;;;;;5009053;28;20109;-82
2022/07/12 00:35:56;;;;;;;9.18;2.60;;;14.10;99.90;;;;;;5007953;28;20075;-81
2022/07/12 00:38:22;;;;;;;2.72;2.35;;;14.10;99.90;;;;;;5013658;28;20496;-82
2022/07/12 00:40:49;;;;;;;5.63;2.80;;;14.10;99.90;;;;;;5019012;28;20022;-80
2022/07/12 00:43:15;;;;;;;3.40;2.22;;;14.00;99.90;;;;;;5025039;28;20026;-81
2022/07/12 00:45:41;;;;;;;5.82;2.38;;;14.10;99.90;;;;;;5024855;28;20094;-82
2022/07/12 00:48:07;;;;;;;15.80;2.95;;;14.10;99.90;;;;;;5026796;28;20053;-80
2022/07/12 00:50:34;;;;;;;3.97;2.53;;;14.10;99.90;;;;;;5025863;28;20034;-81
2022/07/12 00:52:59;;;;;;;5.60;2.85;;;14.10;99.90;;;;;;5024946;28;20022;-80
2022/07/12 00:55:25;;;;;;;9.77;2.72;;;14.10;99.90;;;;;;5025549;28;20033;-80
2022/07/12 00:57:51;;;;;;;2.70;2.50;;;14.10;99.90;;;;;;5023780;28;20053;-80
2022/07/12 01:00:21;;;;;;;3.22;2.42;;;14.10;99.90;;;;;;5032125;28;20022;-81
2022/07/12 01:02:47;;;;;;;3.10;2.55;;;14.10;99.90;;;;;;5014204;28;20041;-82
2022/07/12 01:05:14;;;;;;;8.45;3.03;;;14.10;99.90;;;;;;5028991;28;20022;-81
2022/07/12 01:07:40;;;;;;;4.30;2.75;;;14.20;99.90;;;;;;5012750;28;20033;-82
2022/07/12 01:10:07;;;;;;;4.75;2.65;;;14.20;99.90;;;;;;5012862;28;20026;-82
2022/07/12 01:12:34;;;;;;;5.03;2.80;;;14.10;99.90;;;;;;5012418;28;20061;-83
2022/07/12 01:15:00;;;;;;;8.55;2.53;;;14.10;99.90;;;;;;5013097;28;20028;-81
2022/07/12 01:17:27;;;;;;;10.45;2.67;;;14.20;99.90;;;;;;5013086;28;20025;-80
2022/07/12 01:19:55;;;;;;;2.95;2.50;;;14.20;99.90;;;;;;5012055;28;20026;-84
2022/07/12 01:22:27;;;;;;;3.92;2.70;;;14.10;99.90;;;;;;5012353;28;20018;-82
2022/07/12 01:24:53;;;;;;;7.32;2.97;;;14.10;99.90;;;;;;5012359;28;20022;-82
2022/07/12 01:27:19;;;;;;;6.72;2.72;;;14.00;99.90;;;;;;5012713;28;20029;-81
2022/07/12 01:29:45;;;;;;;3.75;2.65;;;14.00;99.90;;;;;;5012252;28;20612;-80
2022/07/12 01:32:26;;;;;;;5.28;2.75;;;13.90;99.90;;;;;;5012785;28;20046;-83
2022/07/12 01:34:53;;;;;;;4.82;2.80;;;13.90;99.90;;;;;;5012216;28;20042;-83
2022/07/12 01:37:19;;;;;;;7.25;3.05;;;13.90;99.90;;;;;;5013527;28;20113;-81
2022/07/12 01:39:47;;;;;;;3.90;3.55;;;13.90;99.90;;;;;;5013564;28;20047;-83
2022/07/12 01:42:13;;;;;;;4.78;2.60;;;13.90;99.90;;;;;;5013432;28;20021;-81
2022/07/12 01:44:39;;;;;;;8.73;3.00;;;13.90;99.90;;;;;;5011923;28;20022;-81
2022/07/12 01:47:05;;;;;;;5.78;2.58;;;13.90;99.90;;;;;;5013032;28;20030;-80
2022/07/12 01:49:30;;;;;;;14.88;3.00;;;13.90;99.90;;;;;;5013285;28;20063;-81
2022/07/12 01:51:57;;;;;;;7.07;2.90;;;13.90;99.90;;;;;;5013382;28;20018;-81
2022/07/12 01:54:24;;;;;;;4.57;2.80;;;13.90;99.90;;;;;;5012296;28;20382;-80
2022/07/12 01:56:51;;;;;;;7.78;3.30;;;14.00;99.90;;;;;;5013053;28;20068;-82
2022/07/12 01:59:18;;;;;;;6.82;3.00;;;13.90;99.90;;;;;;5028267;28;20109;-81
2022/07/12 02:01:45;;;;;;;8.25;3.40;;;13.90;99.90;;;;;;5012904;28;20022;-82
2022/07/12 02:04:11;;;;;;;6.90;2.90;;;13.90;99.90;;;;;;5012686;28;20018;-82
2022/07/12 02:06:38;;;;;;;6.53;3.20;;;14.00;99.90;;;;;;5010390;28;20168;-83
2022/07/12 02:09:04;;;;;;;3.42;2.97;;;14.00;99.90;;;;;;5012117;28;20018;-80
2022/07/12 02:11:31;;;;;;;6.75;3.42;;;14.10;99.90;;;;;;5011899;28;20504;-82
2022/07/12 02:13:57;;;;;;;11.85;3.40;;;14.10;99.90;;;;;;5012058;28;20026;-81
2022/07/12 02:16:22;;;;;;;13.75;3.65;;;14.10;99.90;;;;;;5011264;28;20072;-82
2022/07/12 02:18:48;;;;;;;7.15;3.03;;;14.10;99.90;;;;;;5012192;28;20029;-82
2022/07/12 02:21:14;;;;;;;7.13;2.75;;;14.10;99.90;;;;;;5012331;28;20034;-82
2022/07/12 02:23:40;;;;;;;6.68;2.97;;;14.20;99.90;;;;;;5012739;28;20036;-82
2022/07/12 02:26:05;;;;;;;9.45;3.55;;;14.20;99.90;;;;;;5012607;28;20034;-83
2022/07/12 02:28:31;;;;;;;8.00;3.70;;;14.20;99.90;;;;;;5011203;28;20030;-82
2022/07/12 02:30:57;;;;;;;8.82;2.92;;;14.20;99.90;;;;;;5012176;28;20022;-80
2022/07/12 02:33:23;;;;;;;4.20;3.17;;;14.20;99.90;;;;;;5010977;28;20026;-82
2022/07/12 02:35:49;;;;;;;4.78;2.90;;;14.20;99.90;;;;;;5012098;28;20030;-81
2022/07/12 02:38:14;;;;;;;8.63;3.45;;;14.20;99.90;;;;;;5011790;28;20033;-83
2022/07/12 02:40:55;;;;;;;5.40;3.05;;;14.30;99.90;;;;;;5012006;28;20102;-83
2022/07/12 02:43:25;;;;;;;4.35;2.67;;;14.30;99.90;;;;;;5011373;28;20398;-80
2022/07/12 02:45:58;;;;;;;5.38;3.35;;;14.30;99.90;;;;;;5026950;28;20045;-80
2022/07/12 02:48:24;;;;;;;6.55;3.13;;;14.30;99.90;;;;;;5010821;28;20046;-82
2022/07/12 02:50:49;;;;;;;14.90;3.33;;;14.30;99.90;;;;;;5009958;28;20056;-81
2022/07/12 02:53:16;;;;;;;4.45;3.33;;;14.30;99.90;;;;;;5011797;28;20033;-82
2022/07/12 02:55:41;;;;;;;4.88;3.38;;;14.30;99.90;;;;;;5011446;28;20026;-81
2022/07/12 02:58:07;;;;;;;7.32;3.20;;;14.30;99.90;;;;;;5010150;28;20033;-81
2022/07/12 03:00:35;;;;;;;4.50;3.28;;;14.30;99.90;;;;;;5011210;28;20033;-81
2022/07/12 03:03:01;;;;;;;6.78;3.22;;;14.30;99.90;;;;;;5010541;28;20018;-80
2022/07/12 03:05:27;;;;;;;6.85;3.50;;;14.40;99.90;;;;;;5011842;28;20096;-80
2022/07/12 03:07:53;;;;;;;7.50;3.22;;;14.30;99.90;;;;;;5010521;28;20121;-83
2022/07/12 03:10:19;;;;;;;15.27;4.18;;;14.30;99.90;;;;;;5010881;28;20026;-79
2022/07/12 03:12:46;;;;;;;13.05;5.65;;;14.30;99.90;;;;;;5011822;28;20041;-81
2022/07/12 03:15:12;;;;;;;7.53;3.50;;;14.40;99.90;;;;;;5011578;28;20026;-82
2022/07/12 03:17:38;;;;;;;6.82;3.45;;;14.40;99.90;;;;;;5026621;28;20030;-81
2022/07/12 03:20:11;;;;;;;20.98;4.13;;;14.30;99.90;;;;;;5026765;28;20484;-80
2022/07/12 03:22:48;;;;;;;5.13;3.88;;;14.30;99.90;;;;;;5011633;28;20469;-82
2022/07/12 03:25:14;;;;;;;4.68;3.55;;;14.40;99.90;;;;;;5009889;28;20034;-81
2022/07/12 03:27:40;;;;;;;11.70;4.40;;;14.40;99.90;;;;;;5011578;28;20026;-82
2022/07/12 03:30:08;;;;;;;6.15;3.45;;;14.40;99.90;;;;;;5011280;28;20030;-83
2022/07/12 03:32:33;;;;;;;6.95;3.10;;;14.40;99.90;;;;;;5011276;28;20057;-81
2022/07/12 03:34:59;;;;;;;4.60;3.70;;;14.50;99.90;;;;;;5011229;28;20057;-82
2022/07/12 03:37:25;;;;;;;5.45;3.08;;;14.50;99.90;;;;;;5011126;28;20022;-82
2022/07/12 03:39:51;;;;;;;3.63;3.33;;;14.50;99.90;;;;;;5010698;28;20100;-83
2022/07/12 03:42:17;;;;;;;8.43;3.75;;;14.60;99.90;;;;;;5011029;28;20076;-81
2022/07/12 03:44:42;;;;;;;4.93;3.17;;;14.60;99.90;;;;;;5010242;28;20018;-82
2022/07/12 03:47:08;;;;;;;7.43;3.42;;;14.60;99.90;;;;;;5025912;28;20056;-80
2022/07/12 03:49:33;;;;;;;4.55;3.10;;;14.70;99.90;;;;;;5011281;28;20025;-82
2022/07/12 03:51:59;;;;;;;10.20;3.30;;;14.60;99.90;;;;;;5010793;28;20036;-81
2022/07/12 03:54:25;;;;;;;10.95;3.50;;;14.60;99.90;;;;;;5011083;28;20390;-80
2022/07/12 03:59:34;;;;;;;3.38;2.97;;;14.60;99.90;;;;;;5010811;28;20456;-82
2022/07/12 04:02:02;;;;;;;6.13;3.00;;;14.80;99.90;;;;;;5009892;28;20026;-83
2022/07/12 04:04:28;;;;;;;6.95;3.00;;;14.80;99.90;;;;;;5010216;28;20097;-82
2022/07/12 04:06:53;;;;;;;7.03;2.70;;;14.80;99.90;;;;;;5010474;28;20053;-79
2022/07/12 04:09:19;;;;;;;6.50;2.95;;;14.70;99.90;;;;;;5010167;28;20065;-82
2022/07/12 04:11:45;;;;;;;7.55;3.00;;;14.80;99.90;;;;;;5010444;28;20040;-82
2022/07/12 04:14:11;;;;;;;8.43;3.42;;;14.70;99.90;;;;;;5010378;28;20092;-81
2022/07/12 04:16:37;;;;;;;4.38;3.20;;;14.80;99.90;;;;;;5011277;28;20109;-81
2022/07/12 04:19:04;;;;;;;3.25;2.90;;;14.80;99.90;;;;;;5014948;28;20491;-81
2022/07/12 04:21:30;;;;;;;3.58;3.25;;;14.80;99.90;;;;;;5014731;28;20026;-81
2022/07/12 04:23:56;;;;;;;4.97;3.38;;;14.80;99.90;;;;;;5014431;28;20052;-82
2022/07/12 04:26:22;;;;;;;6.93;3.67;;;14.90;99.90;;;;;;5014784;28;20022;-83
2022/07/12 04:28:48;;;;;;;3.97;3.53;;;14.90;99.90;;;;;;5013491;28;20030;-80
2022/07/12 04:31:13;;;;;;;6.93;3.28;;;14.80;99.90;;;;;;5014961;28;20440;-82
2022/07/12 04:33:39;;;;;;;4.25;3.85;;;14.80;99.90;;;;;;5014519;28;20487;-82
2022/07/12 04:36:05;;;;;;;4.97;3.15;;;14.90;99.90;;;;;;5015181;28;20053;-80
2022/07/12 04:38:31;;;;;;;5.38;3.50;;;15.00;99.90;;;;;;5014479;28;20049;-80
2022/07/12 04:40:57;;;;;;;10.88;3.20;;;15.10;99.90;;;;;;5014128;28;20029;-82
2022/07/12 04:43:25;;;;;;;3.88;3.20;;;15.20;99.90;;;;;;5014580;28;20174;-82
2022/07/12 04:45:52;;;;;;;3.67;3.38;;;15.20;99.90;;;;;;5029729;28;20026;-80
2022/07/12 04:48:18;;;;;;;3.30;2.97;;;15.20;99.90;;;;;;5014504;28;20077;-80
2022/07/12 04:50:44;;;;;;;3.13;2.60;;;15.20;99.90;;;;;;5014711;28;20057;-82
2022/07/12 04:53:10;;;;;;;4.32;2.65;;;15.30;99.90;;;;;;5014216;28;20452;-81
2022/07/12 04:55:36;;;;;;;2.95;2.75;;;15.30;99.90;;;;;;5014362;28;20030;-83
2022/07/12 04:58:02;;;;;;;2.75;2.20;;;15.30;99.90;;;;;;5014767;28;20026;-80
2022/07/12 05:00:28;;;;;;;6.70;2.67;;;15.30;99.90;;;;;;5014929;28;20040;-81
2022/07/12 05:02:53;;;;;;;3.60;2.50;;;15.40;99.90;;;;;;5016484;28;20022;-81
2022/07/12 05:05:19;;;;;;;2.30;2.10;;;15.40;99.90;;;;;;5015272;28;20465;-80
2022/07/12 05:07:45;;;;;;;5.00;2.28;;;15.50;99.90;;;;;;5013885;28;20436;-83
2022/07/12 05:10:11;;;;;;;2.63;2.35;;;15.50;99.90;;;;;;5013796;28;20025;-80
2022/07/12 05:12:37;;;;;;;5.13;2.53;;;15.50;99.90;;;;;;5013960;28;20477;-82
2022/07/12 05:15:07;;;;;;;3.17;2.60;;;15.60;99.90;;;;;;5012497;28;20029;-83
2022/07/12 05:17:33;;;;;;;2.30;1.98;;;15.60;99.90;;;;;;5012392;28;20464;-82
2022/07/12 05:19:58;;;;;;;4.20;2.75;;;15.70;99.90;;;;;;5013929;28;20105;-80
2022/07/12 05:22:24;;;;;;;3.15;1.98;;;15.80;99.90;;;;;;5013612;28;20036;-80
2022/07/12 05:24:50;;;;;;;2.88;2.25;;;15.80;99.90;;;;;;5013690;28;20045;-80
2022/07/12 05:27:16;;;;;;;2.95;1.90;;;15.90;99.90;;;;;;5013541;28;20445;-81
2022/07/12 05:29:43;;;;;;;6.35;2.42;;;15.90;99.90;;;;;;5012284;28;20045;-80
2022/07/12 05:32:09;;;;;;;2.63;2.33;;;16.00;99.90;;;;;;5013593;28;20066;-80
2022/07/12 05:34:36;;;;;;;3.10;2.53;;;16.10;99.90;;;;;;5013419;28;20462;-83
2022/07/12 05:37:02;;;;;;;2.45;2.10;;;16.10;99.90;;;;;;5013582;28;20065;-83
2022/07/12 05:39:27;;;;;;;2.20;2.03;;;16.30;99.90;;;;;;5013375;28;20053;-80
2022/07/12 05:41:53;;;;;;;1.95;1.75;;;16.40;99.90;;;;;;5013292;28;20032;-81
2022/07/12 05:44:19;;;;;;;2.08;1.98;;;16.50;99.90;;;;;;5012838;28;20113;-80
2022/07/12 05:46:45;;;;;;;2.50;2.30;;;16.50;99.90;;;;;;5011857;28;20493;-82
2022/07/12 05:49:12;;;;;;;3.83;2.40;;;16.60;99.90;;;;;;5013422;28;20034;-80
2022/07/12 05:54:22;;;;;;;2.40;2.20;;;16.80;99.90;;;;;;5013079;28;20033;-81
2022/07/12 05:56:48;;;;;;;2.20;2.10;;;17.00;99.90;;;;;;5012947;28;20030;-83
2022/07/12 05:59:14;;;;;;;1.90;1.77;;;17.00;99.90;;;;;;5013362;28;20140;-83
2022/07/12 06:01:40;;;;;;;2.53;1.83;;;17.10;99.90;;;;;;5013069;28;20496;-81
2022/07/12 06:04:07;;;;;;;5.15;2.38;;;17.10;99.90;;;;;;5012730;28;20052;-81
2022/07/12 06:06:32;;;;;;;6.00;2.55;;;17.20;99.90;;;;;;5012962;28;20117;-83
2022/07/12 06:08:58;;;;;;;3.58;2.80;;;17.10;99.90;;;;;;5027426;28;20160;-81
2022/07/12 06:11:24;;;;;;;5.78;2.03;;;17.20;99.90;;;;;;5013107;28;20532;-82
2022/07/12 06:13:50;;;;;;;2.35;2.15;;;17.20;99.90;;;;;;5012857;28;20048;-80
2022/07/12 06:16:16;;;;;;;5.57;2.20;;;17.30;99.90;;;;;;5012728;28;20376;-82
2022/07/12 06:18:42;;;;;;;2.00;1.80;;;17.40;99.90;;;;;;5010862;28;20040;-82
2022/07/12 06:21:08;;;;;;;3.17;2.20;;;17.40;99.90;;;;;;5012709;28;20029;-82
2022/07/12 06:23:34;;;;;;;3.00;2.30;;;17.50;99.90;;;;;;5012658;28;20018;-80
2022/07/12 06:25:59;;;;;;;2.47;2.28;;;17.50;99.90;;;;;;5012327;28;20104;-83
2022/07/12 06:28:25;;;;;;;4.85;1.90;;;17.60;99.90;;;;;;5012507;28;20037;-81
2022/07/12 06:30:51;;;;;;;2.90;2.60;;;17.60;99.90;;;;;;5010979;28;20269;-80
2022/07/12 06:33:16;;;;;;;2.22;2.00;;;17.80;99.90;;;;;;5012326;28;20496;-82
2022/07/12 06:35:42;;;;;;;5.28;2.25;;;17.80;99.90;;;;;;5012293;28;20120;-83
2022/07/12 06:38:08;;;;;;;2.72;1.45;;;17.70;99.90;;;;;;5010950;28;20048;-83
2022/07/12 06:40:33;;;;;;;6.15;1.73;;;17.60;99.90;;;;;;5011822;28;20032;-82
2022/07/12 06:42:59;;;;;;;1.75;1.35;;;17.80;99.90;;;;;;5010789;28;20022;-80
2022/07/12 06:45:25;;;;;;;4.68;2.00;;;18.00;99.90;;;;;;5012339;28;20026;-82
2022/07/12 06:47:52;;;;;;;1.83;1.70;;;18.20;99.90;;;;;;5010174;28;20046;-81
2022/07/12 06:50:20;;;;;;;2.20;1.98;;;18.10;99.90;;;;;;5010110;28;20030;-82
2022/07/12 06:52:46;;;;;;;2.05;1.67;;;18.20;99.90;;;;;;5012151;28;20092;-81
2022/07/12 06:55:12;;;;;;;2.58;2.15;;;18.30;99.90;;;;;;5012070;28;20022;-84
2022/07/12 06:57:37;;;;;;;1.60;1.50;;;18.40;99.90;;;;;;5012169;28;20429;-83
2022/07/12 07:00:05;;;;;;;2.13;1.40;;;18.40;99.90;;;;;;5011523;28;20033;-83
2022/07/12 07:02:31;;;;;;;1.65;1.52;;;18.40;99.90;;;;;;5010476;28;20045;-83
2022/07/12 07:04:57;;;;;;;2.15;1.92;;;18.70;99.90;;;;;;5011798;28;20374;-81
2022/07/12 07:07:35;;;;;;;1.85;1.65;;;18.90;99.90;;;;;;5011978;28;20030;-82
2022/07/12 07:10:01;;;;;;;2.53;1.98;;;18.60;99.90;;;;;;5011936;28;20441;-81
2022/07/12 07:12:26;;;;;;;1.75;1.30;;;18.70;99.90;;;;;;5011907;28;20026;-81
2022/07/12 07:14:52;;;;;;;3.95;1.80;;;18.70;99.90;;;;;;5026999;28;20026;-83
2022/07/12 07:17:19;;;;;;;3.15;1.92;;;18.70;99.90;;;;;;5011473;28;20073;-81
2022/07/12 07:19:45;;;;;;;4.43;1.95;;;18.90;99.90;;;;;;5010451;28;20022;-84
2022/07/12 07:22:11;;;;;;;4.80;1.83;;;18.90;99.90;;;;;;5011716;28;20029;-83
2022/07/12 07:24:38;;;;;;;2.75;1.98;;;19.00;99.90;;;;;;5011215;28;20037;-80
2022/07/12 07:27:04;;;;;;;3.00;1.60;;;19.30;99.90;;;;;;5011815;28;20029;-81
2022/07/12 07:32:13;;;;;;;2.25;1.70;;;19.40;99.90;;;;;;5011935;28;20043;-81
2022/07/12 07:34:39;;;;;;;1.60;1.45;;;19.10;99.90;;;;;;5020588;28;20078;-80
2022/07/12 07:37:05;;;;;;;5.88;1.30;;;19.20;99.90;;;;;;5024747;28;20258;-80
2022/07/12 07:39:31;;;;;;;1.20;1.10;;;19.20;99.90;;;;;;5024924;28;20018;-81
2022/07/12 07:41:56;;;;;;;1.10;1.10;;;19.10;99.90;;;;;;5022821;28;20029;-83
2022/07/12 07:44:22;;;;;;;0.98;0.98;;;19.20;99.90;;;;;;5024560;28;20014;-80
2022/07/12 07:46:48;;;;;;;1.30;1.20;;;19.70;99.90;;;;;;5027712;28;20086;-82
2022/07/12 07:49:13;;;;;;;4.45;1.77;;;19.70;99.90;;;;;;5030357;28;20041;-82
2022/07/12 07:51:39;;;;;;;1.88;1.50;;;19.60;99.90;;;;;;5039560;28;20036;-82
2022/07/12 07:54:04;;;;;;;5.38;1.30;;;20.00;99.90;;;;;;5027348;28;20030;-83
2022/07/12 07:56:30;;;;;;;2.58;1.85;;;19.80;99.90;;;;;;5011423;28;20018;-82
2022/07/12 07:58:56;;;;;;;1.17;1.08;;;20.00;99.90;;;;;;5010994;28;20030;-81
2022/07/12 08:01:42;;;;;;;3.28;2.60;;;20.30;99.90;;;;;;5010897;28;20345;-83
2022/07/12 08:04:11;;;;;;;2.90;1.98;;;20.20;99.90;;;;;;5010794;28;20037;-84
2022/07/12 08:06:36;;;;;;;1.13;1.10;;;20.20;99.90;;;;;;5010630;28;20105;-81
2022/07/12 08:09:03;;;;;;;2.55;1.90;;;20.20;99.90;;;;;;5011062;28;20109;-83
2022/07/12 08:11:28;;;;;;;2.03;1.02;;;20.30;99.90;;;;;;5010849;28;20028;-84
2022/07/12 08:13:54;;;;;;;2.92;1.20;;;20.40;99.90;;;;;;5010704;28;20026;-81
2022/07/12 08:16:20;;;;;;;3.63;2.65;;;20.80;99.90;;;;;;5010863;28;20026;-81
2022/07/12 08:18:45;;;;;;;1.42;1.27;;;20.70;99.90;;;;;;5008787;28;20156;-81
2022/07/12 08:21:11;;;;;;;3.83;3.50;;;20.60;99.90;;;;;;5009486;28;20025;-81
2022/07/12 08:23:37;;;;;;;6.78;4.45;;;20.80;99.90;;;;;;5008956;28;20044;-84
2022/07/12 08:26:03;;;;;;;0.93;0.90;;;20.80;99.90;;;;;;5010910;28;20018;-83
2022/07/12 08:28:28;;;;;;;1.75;1.08;;;21.00;99.90;;;;;;5009365;28;20562;-81
2022/07/12 08:30:55;;;;;;;1.02;0.95;;;21.30;99.90;;;;;;5010191;28;20038;-82
2022/07/12 08:33:21;;;;;;;3.92;0.93;;;21.50;99.90;;;;;;5010665;28;20113;-84
2022/07/12 08:35:46;;;;;;;2.22;1.10;;;21.90;99.80;;;;;;5010588;28;20112;-82
2022/07/12 08:38:13;;;;;;;1.48;0.90;;;22.20;99.90;;;;;;5010630;28;20109;-82
2022/07/12 08:40:40;;;;;;;1.23;1.00;;;22.10;99.10;;;;;;5010643;28;20021;-82
2022/07/12 08:43:05;;;;;;;0.90;0.90;;;21.90;99.90;;;;;;5009343;28;20095;-81
2022/07/12 08:45:31;;;;;;;4.47;1.63;;;21.90;99.90;;;;;;5010726;28;20030;-84
2022/07/12 08:47:56;;;;;;;1.67;1.58;;;21.60;99.50;;;;;;5010401;28;20057;-81
2022/07/12 08:50:27;;;;;;;0.90;0.90;;;21.40;99.40;;;;;;5010400;28;20124;-83
2022/07/12 08:52:55;;;;;;;1.55;1.17;;;21.50;99.90;;;;;;5010164;28;20064;-83
2022/07/12 08:55:34;;;;;;;1.15;1.05;;;21.80;99.90;;;;;;5009265;28;20120;-83
2022/07/12 08:58:02;;;;;;;1.88;1.15;;;22.00;99.90;;;;;;5009407;28;20029;-81
2022/07/12 09:00:28;;;;;;;1.15;0.90;;;21.80;98.90;;;;;;5008990;28;20072;-83
2022/07/12 09:02:55;;;;;;;1.35;1.20;;;21.90;98.00;;;;;;5010002;28;20026;-83
2022/07/12 09:05:25;;;;;;;1.70;1.00;;;21.60;99.90;;;;;;5014245;28;20025;-82
2022/07/12 09:08:00;;;;;;;1.15;1.02;;;22.00;98.80;;;;;;5013974;28;20026;-81
2022/07/12 09:10:26;;;;;;;1.33;1.15;;;22.10;98.40;;;;;;5013919;28;20083;-80
2022/07/12 09:12:52;;;;;;;1.00;1.00;;;21.70;97.70;;;;;;5012588;28;20025;-83
2022/07/12 09:15:20;;;;;;;0.80;0.80;;;21.30;98.30;;;;;;5013504;28;20370;-82
2022/07/12 09:18:13;;;;;;;3.25;1.02;;;21.30;99.20;;;;;;5013686;28;20108;-82
2022/07/12 09:20:39;;;;;;;2.33;1.77;;;21.10;99.60;;;;;;5013942;28;20025;-83
2022/07/12 09:23:10;;;;;;;4.57;2.05;;;20.90;99.60;;;;;;5013717;28;20025;-84
2022/07/12 09:25:37;;;;;;;1.25;1.13;;;20.60;99.90;;;;;;5013143;28;20026;-82
2022/07/12 09:28:06;;;;;;;1.27;1.00;;;20.50;99.90;;;;;;5012594;28;20034;-83
2022/07/12 09:30:31;;;;;;;1.27;1.20;;;20.60;99.80;;;;;;5004927;28;20023;-82
2022/07/12 09:36:12;;;;;;;1.77;1.25;;;21.20;98.90;;;;;;4995604;28;20083;-82
2022/07/12 09:38:48;;;;;;;1.10;1.00;;;21.30;99.90;;;;;;4994389;28;20018;-83
2022/07/12 09:41:17;;;;;;;1.20;1.10;;;21.40;99.30;;;;;;4996113;28;20117;-82
2022/07/12 09:43:43;;;;;;;1.33;0.98;;;21.50;99.70;;;;;;4993688;28;20126;-81
2022/07/12 09:46:10;;;;;;;2.72;1.23;;;21.20;98.30;;;;;;4992194;28;20576;-81
2022/07/12 09:48:37;;;;;;;1.30;1.20;;;21.30;98.60;;;;;;4993718;28;20065;-83
2022/07/12 09:51:04;;;;;;;1.27;1.17;;;21.40;99.50;;;;;;4994057;28;20033;-83
2022/07/12 09:53:49;;;;;;;1.90;1.27;;;21.00;98.60;;;;;;4993714;28;20022;-81
2022/07/12 09:56:17;;;;;;;1.35;1.23;;;21.30;99.90;;;;;;5007241;28;20034;-81
2022/07/12 09:58:57;;;;;;;1.90;1.10;;;21.80;99.90;;;;;;5011464;28;20436;-83
2022/07/12 10:01:24;;;;;;;1.10;0.95;;;22.00;98.60;;;;;;5013155;28;20030;-83
2022/07/12 10:03:51;;;;;;;2.15;1.10;;;21.70;97.90;;;;;;5012384;28;20031;-81
2022/07/12 10:06:28;;;;;;;1.65;1.00;;;21.50;97.00;;;;;;5013136;28;20025;-80
2022/07/12 10:08:57;;;;;;;1.67;1.27;;;21.50;97.70;;;;;;5012724;28;20108;-81
2022/07/12 10:11:24;;;;;;;5.60;1.42;;;21.20;98.00;;;;;;5012735;28;20034;-81
2022/07/12 10:13:51;;;;;;;2.83;1.55;;;21.30;98.00;;;;;;5012865;28;20018;-81
2022/07/12 10:16:26;;;;;;;1.52;1.13;;;21.20;98.10;;;;;;5027433;28;20068;-81
2022/07/12 10:19:20;;;;;;;1.63;1.52;;;21.50;98.30;;;;;;5012637;28;20021;-82
2022/07/12 10:21:48;;;;;;;1.33;1.17;;;21.70;97.90;;;;;;5012698;28;20018;-83
2022/07/12 10:24:32;;;;;;;11.02;2.53;;;22.30;97.10;;;;;;5012700;28;20021;-82
2022/07/12 10:27:21;;;;;;;1.63;1.20;;;22.70;95.80;;;;;;5012543;28;20018;-83
2022/07/12 10:29:49;;;;;;;8.57;1.15;;;23.30;95.40;;;;;;5005511;28;20497;-84
2022/07/12 10:32:35;;;;;;;3.00;1.13;;;23.90;94.80;;;;;;5012489;28;20120;-80
2022/07/12 10:35:01;;;;;;;2.80;1.73;;;23.80;92.90;;;;;;5012570;28;20619;-80
2022/07/12 10:37:28;;;;;;;2.15;1.02;;;23.90;92.80;;;;;;5012273;28;20030;-81
2022/07/12 10:40:13;;;;;;;0.95;0.95;;;23.30;91.60;;;;;;5012235;28;20025;-82
2022/07/12 10:42:40;;;;;;;1.35;0.95;;;24.00;94.50;;;;;;5012321;28;20026;-80
2022/07/12 10:45:29;;;;;;;1.60;1.05;;;23.80;93.20;;;;;;5010958;28;20014;-81
2022/07/12 10:48:03;;;;;;;0.90;0.88;;;23.40;94.10;;;;;;5010676;28;20061;-81
2022/07/12 10:50:48;;;;;;;1.13;1.00;;;22.90;93.70;;;;;;5011965;28;20028;-84
2022/07/12 10:53:29;;;;;;;0.93;0.90;;;22.20;93.70;;;;;;5010892;28;20429;-81
2022/07/12 10:56:06;;;;;;;1.25;0.90;;;22.30;94.00;;;;;;5012292;28;20054;-81
2022/07/12 10:58:46;;;;;;;1.92;1.17;;;22.40;93.90;;;;;;5011876;28;20076;-83
2022/07/12 11:01:22;;;;;;;1.38;0.90;;;22.90;92.50;;;;;;5012077;28;20030;-82
2022/07/12 11:03:51;;;;;;;3.92;1.25;;;22.90;92.90;;;;;;5011919;28;20083;-81
2022/07/12 11:06:19;;;;;;;1.50;1.17;;;23.80;92.80;;;;;;5010574;28;20033;-81
2022/07/12 11:09:07;;;;;;;1.00;0.80;;;24.20;92.10;;;;;;5010648;28;20413;-82
2022/07/12 11:11:35;;;;;;;1.67;1.05;;;24.50;93.60;;;;;;5011885;28;20025;-83
2022/07/12 11:14:02;;;;;;;3.53;1.20;;;24.70;91.10;;;;;;5026889;28;20389;-83
2022/07/12 11:16:29;;;;;;;1.63;0.77;;;23.50;90.30;;;;;;5010534;28;20037;-81
2022/07/12 11:18:55;;;;;;;1.63;1.13;;;24.10;90.70;;;;;;5010419;28;20022;-81
2022/07/12 11:21:22;;;;;;;2.90;0.82;;;23.40;88.60;;;;;;5026907;28;20064;-83
2022/07/12 11:23:48;;;;;;;0.90;0.70;;;23.80;90.30;;;;;;5011746;28;20053;-82
2022/07/12 11:26:14;;;;;;;1.17;0.80;;;24.00;91.20;;;;;;5011506;28;20061;-82
2022/07/12 11:28:43;;;;;;;1.27;1.00;;;24.00;90.00;;;;;;5011699;28;20025;-84
2022/07/12 11:31:11;;;;;;;1.20;1.10;;;24.60;91.20;;;;;;5011656;28;20053;-82
2022/07/12 11:33:42;;;;;;;1.40;1.02;;;24.70;91.10;;;;;;5011206;28;20370;-82
2022/07/12 11:36:09;;;;;;;3.28;0.90;;;24.70;90.90;;;;;;5011142;28;20077;-83
2022/07/12 11:38:40;;;;;;;2.95;1.35;;;24.50;91.20;;;;;;5011230;28;20053;-80
2022/07/12 11:41:08;;;;;;;3.78;1.05;;;24.00;91.80;;;;;;5010106;28;20049;-82
2022/07/12 11:43:36;;;;;;;1.40;1.25;;;23.60;92.60;;;;;;5011180;28;20362;-82
2022/07/12 11:46:03;;;;;;;5.30;0.98;;;23.20;92.90;;;;;;5009939;28;20030;-81
2022/07/12 11:48:32;;;;;;;2.05;1.05;;;22.90;93.20;;;;;;5011008;28;20048;-83
2022/07/12 11:51:18;;;;;;;4.68;1.50;;;22.50;93.40;;;;;;5011068;28;20152;-82
2022/07/12 11:53:50;;;;;;;4.40;1.60;;;22.60;94.10;;;;;;5010991;28;20030;-82
2022/07/12 11:56:16;;;;;;;1.37;1.23;;;23.30;93.70;;;;;;5010602;28;20045;-83
2022/07/12 11:58:42;;;;;;;8.80;1.38;;;24.20;92.10;;;;;;5011125;28;20030;-82
2022/07/12 12:01:14;;;;;;;2.83;0.90;;;23.90;90.90;;;;;;5010891;28;20045;-84
2022/07/12 12:03:44;;;;;;;3.28;1.30;;;24.00;91.40;;;;;;5009313;28;20629;-81
2022/07/12 12:06:10;;;;;;;4.22;1.17;;;24.20;92.10;;;;;;5009764;28;20401;-80
2022/07/12 12:08:36;;;;;;;2.42;1.45;;;24.10;92.20;;;;;;5010990;28;20022;-80
2022/07/12 12:11:02;;;;;;;0.80;0.80;;;23.90;90.20;;;;;;5011336;28;20029;-83
2022/07/12 12:13:30;;;;;;;2.50;0.98;;;24.20;88.80;;;;;;5009622;28;20389;-82
2022/07/12 12:16:05;;;;;;;7.88;1.23;;;23.90;90.50;;;;;;5011003;28;20505;-81
2022/07/12 12:18:38;;;;;;;0.80;0.80;;;23.70;90.10;;;;;;5009441;28;20160;-81
2022/07/12 12:21:13;;;;;;;1.52;1.10;;;23.10;88.40;;;;;;5009598;28;20075;-83
2022/07/12 12:23:41;;;;;;;5.07;1.40;;;23.20;90.10;;;;;;5011237;28;20097;-82
2022/07/12 12:26:20;;;;;;;5.25;0.90;;;23.50;90.50;;;;;;5011131;28;20419;-82
2022/07/12 12:28:54;;;;;;;2.35;1.13;;;24.50;90.60;;;;;;5010688;28;20085;-84
2022/07/12 12:31:23;;;;;;;;;;;25.30;88.20;;;;;;5009949;28;20120;-83
2022/07/12 12:33:53;;;;;;;0.60;0.60;;;26.50;85.60;;;;;;5009270;28;20011;-81
2022/07/12 12:36:27;;;;;;;6.38;0.73;;;28.50;83.90;;;;;;5010453;28;20018;-85
2022/07/12 12:38:57;;;;;;;0.80;0.52;;;29.70;73.00;;;;;;5013152;28;20025;-82
2022/07/12 12:41:25;;;;;;;1.65;0.32;;;30.80;72.50;;;;;;5013430;28;20076;-82
2022/07/12 12:44:05;;;;;;;0.63;0.35;;;30.90;60.80;;;;;;5014724;28;20022;-82
2022/07/12 12:46:45;;;;;;;4.28;0.47;;;31.00;59.10;;;;;;5014342;28;20089;-85
2022/07/12 12:49:11;;;;;;;0.40;0.40;;;31.20;57.90;;;;;;5014458;28;20050;-82
2022/07/12 12:51:53;;;;;;;2.63;0.30;;;31.40;53.30;;;;;;5014327;28;20076;-84
2022/07/12 12:54:38;;;;;;;2.63;0.40;;;32.00;55.20;;;;;;5014313;28;20025;-84
2022/07/12 12:57:05;;;;;;;5.57;0.35;;;31.30;54.20;;;;;;5029720;28;20358;-84
2022/07/12 12:59:31;;;;;;;0.85;0.38;;;31.00;54.40;;;;;;5014233;28;20104;-85
2022/07/12 13:01:57;;;;;;;0.75;0.35;;;30.70;55.10;;;;;;5013852;28;20022;-82